createdAt,value
2019-05-14T00:00:34.864Z,3.77
2019-05-14T00:03:02.343Z,3.77
2019-05-14T00:05:28.450Z,2.97
2019-05-14T00:07:54.416Z,3.43
2019-05-14T00:10:21.860Z,3.77
2019-05-14T00:13:07.988Z,2.97
2019-05-14T00:15:33.817Z,4.50
2019-05-14T00:18:01.238Z,2.73
2019-05-14T00:20:27.427Z,3.93
2019-05-14T00:22:53.381Z,5.87
2019-05-14T00:25:19.225Z,5.80
2019-05-14T00:27:45.070Z,4.17
2019-05-14T00:30:52.638Z,5.10
2019-05-14T00:33:18.504Z,3.90
2019-05-14T00:35:44.436Z,3.80
2019-05-14T00:38:11.929Z,3.60
2019-05-14T00:40:38.054Z,4.13
2019-05-14T00:43:03.900Z,5.43
2019-05-14T00:45:31.292Z,4.43
2019-05-14T00:47:57.554Z,5.17
2019-05-14T00:50:23.408Z,4.53
2019-05-14T00:52:51.477Z,4.60
2019-05-14T00:55:17.216Z,4.27
2019-05-14T00:57:43.037Z,3.73
2019-05-14T01:00:52.526Z,4.37
2019-05-14T01:03:18.255Z,5.40
2019-05-14T01:05:44.107Z,5.10
2019-05-14T01:08:31.854Z,4.47
2019-05-14T01:10:57.688Z,4.07
2019-05-14T01:13:23.635Z,6.90
2019-05-14T01:15:51.903Z,5.00
2019-05-14T01:18:17.231Z,6.07
2019-05-14T01:20:43.076Z,5.67
2019-05-14T01:23:08.896Z,5.47
2019-05-14T01:25:34.749Z,5.70
2019-05-14T01:30:47.943Z,3.93
2019-05-14T01:33:13.882Z,4.00
2019-05-14T01:35:41.897Z,4.50
2019-05-14T01:38:07.655Z,5.37
2019-05-14T01:40:33.485Z,4.60
2019-05-14T01:42:59.340Z,5.20
2019-05-14T01:45:45.066Z,5.57
2019-05-14T01:48:11.671Z,4.20
2019-05-14T01:50:38.680Z,4.27
2019-05-14T01:53:04.526Z,4.50
2019-05-14T01:55:32.450Z,5.23
2019-05-14T01:57:58.264Z,4.97
2019-05-14T02:00:24.186Z,6.50
2019-05-14T02:02:52.263Z,4.57
2019-05-14T02:05:17.909Z,4.13
2019-05-14T02:07:43.750Z,4.40
2019-05-14T02:10:52.693Z,3.67
2019-05-14T02:13:21.284Z,3.77
2019-05-14T02:15:46.809Z,5.27
2019-05-14T02:18:32.627Z,3.57
2019-05-14T02:21:18.454Z,4.07
2019-05-14T02:23:44.313Z,3.30
2019-05-14T02:26:11.394Z,4.33
2019-05-14T02:28:37.923Z,3.87
2019-05-14T02:31:04.228Z,3.83
2019-05-14T02:33:31.719Z,3.60
2019-05-14T02:35:59.937Z,4.90
2019-05-14T02:38:25.333Z,4.00
2019-05-14T02:40:51.273Z,3.33
2019-05-14T02:43:20.105Z,3.47
2019-05-14T02:46:00.780Z,3.30
2019-05-14T02:48:12.710Z,3.47
2019-05-14T02:50:39.681Z,4.50
2019-05-14T02:53:06.511Z,4.00
2019-05-14T02:55:32.537Z,3.63
2019-05-14T02:57:59.813Z,4.33
2019-05-14T03:00:26.165Z,2.80
2019-05-14T03:02:52.019Z,3.10
2019-05-14T03:05:19.189Z,3.37
2019-05-14T03:07:45.799Z,4.90
2019-05-14T03:10:11.762Z,2.90
2019-05-14T03:12:39.526Z,4.10
2019-05-14T03:15:49.495Z,3.90
2019-05-14T03:18:14.835Z,4.20
2019-05-14T03:20:40.665Z,3.47
2019-05-14T03:23:09.977Z,3.50
2019-05-14T03:25:34.461Z,3.27
2019-05-14T03:28:00.330Z,3.90
2019-05-14T03:30:31.581Z,3.43
2019-05-14T03:32:54.117Z,3.77
2019-05-14T03:35:24.334Z,3.30
2019-05-14T03:37:49.705Z,3.37
2019-05-14T03:40:15.761Z,3.60
2019-05-14T03:42:43.600Z,4.47
2019-05-14T03:45:51.083Z,2.97
2019-05-14T03:48:19.065Z,3.80
2019-05-14T03:50:44.796Z,2.87
2019-05-14T03:53:10.730Z,3.27
2019-05-14T03:55:40.011Z,3.30
2019-05-14T03:58:04.346Z,2.93
2019-05-14T04:01:11.851Z,3.10
2019-05-14T04:03:39.838Z,2.93
2019-05-14T04:06:49.692Z,2.73
2019-05-14T04:09:59.336Z,3.87
2019-05-14T04:13:08.943Z,3.60
2019-05-14T04:16:15.364Z,2.70
2019-05-14T04:19:22.906Z,3.00
2019-05-14T04:22:10.156Z,3.10
2019-05-14T04:25:19.449Z,2.80
2019-05-14T04:28:29.862Z,3.53
2019-05-14T04:30:55.451Z,3.20
2019-05-14T04:34:02.942Z,3.43
2019-05-14T04:36:29.960Z,3.77
2019-05-14T04:39:00.351Z,3.00
2019-05-14T04:41:24.902Z,3.47
2019-05-14T04:44:10.715Z,3.57
2019-05-14T04:46:59.720Z,3.73
2019-05-14T04:49:24.274Z,3.53
2019-05-14T04:51:50.604Z,3.77
2019-05-14T04:54:19.469Z,3.90
2019-05-14T04:56:49.752Z,3.40
2019-05-14T04:59:14.378Z,3.60
2019-05-14T05:01:40.462Z,3.57
2019-05-14T05:04:09.342Z,4.30
2019-05-14T05:06:34.043Z,3.33
2019-05-14T05:09:00.299Z,3.23
2019-05-14T05:11:29.105Z,3.67
2019-05-14T05:13:55.579Z,4.20
2019-05-14T05:16:21.533Z,3.30
2019-05-14T05:18:49.043Z,3.70
2019-05-14T05:21:15.234Z,3.60
2019-05-14T05:23:41.067Z,3.33
2019-05-14T05:26:09.210Z,4.40
2019-05-14T05:28:34.871Z,3.43
2019-05-14T05:31:00.930Z,3.93
2019-05-14T05:33:29.147Z,4.30
2019-05-14T05:35:54.719Z,3.70
2019-05-14T05:38:20.665Z,4.00
2019-05-14T05:40:48.563Z,3.23
2019-05-14T05:43:14.426Z,4.23
2019-05-14T05:45:40.371Z,3.90
2019-05-14T05:48:08.266Z,3.77
2019-05-14T05:50:34.264Z,2.77
2019-05-14T05:53:00.117Z,3.67
2019-05-14T05:55:28.627Z,3.33
2019-05-14T05:58:13.700Z,3.43
2019-05-14T06:00:40.410Z,3.20
2019-05-14T06:03:10.881Z,2.73
2019-05-14T06:05:35.465Z,4.03
2019-05-14T06:08:01.632Z,3.20
2019-05-14T06:10:29.186Z,3.37
2019-05-14T06:12:55.401Z,3.33
2019-05-14T06:15:21.354Z,3.23
2019-05-14T06:17:49.266Z,3.53
2019-05-14T06:20:14.963Z,3.53
2019-05-14T06:22:40.781Z,2.67
2019-05-14T06:25:10.530Z,3.27
2019-05-14T06:27:34.694Z,3.60
2019-05-14T06:30:00.528Z,3.20
2019-05-14T06:32:28.854Z,3.53
2019-05-14T06:34:54.244Z,2.83
2019-05-14T06:37:20.188Z,2.20
2019-05-14T06:39:48.321Z,2.20
2019-05-14T06:42:13.957Z,2.10
2019-05-14T06:44:39.894Z,3.37
2019-05-14T06:47:05.820Z,2.80
2019-05-14T06:49:31.779Z,1.87
2019-05-14T06:51:59.302Z,2.20
2019-05-14T06:54:25.479Z,2.40
2019-05-14T06:56:51.418Z,2.10
2019-05-14T06:59:18.173Z,2.60
2019-05-14T07:01:45.271Z,2.20
2019-05-14T07:04:11.291Z,2.07
2019-05-14T07:06:39.172Z,1.90
2019-05-14T07:09:05.214Z,2.67
2019-05-14T07:11:31.179Z,3.07
2019-05-14T07:13:58.144Z,2.50
2019-05-14T07:16:24.769Z,2.50
2019-05-14T07:18:53.964Z,2.03
2019-05-14T07:21:18.788Z,2.87
2019-05-14T07:23:48.697Z,2.10
2019-05-14T07:26:14.248Z,2.10
2019-05-14T07:28:42.491Z,2.70
2019-05-14T07:31:29.107Z,2.53
2019-05-14T07:33:58.092Z,2.53
2019-05-14T07:36:43.315Z,3.20
2019-05-14T07:39:09.635Z,2.07
2019-05-14T07:41:39.074Z,3.03
2019-05-14T07:44:05.118Z,2.67
2019-05-14T07:46:30.981Z,2.33
2019-05-14T07:49:07.147Z,2.97
2019-05-14T07:51:44.467Z,2.60
2019-05-14T07:54:10.393Z,2.10
2019-05-14T07:56:38.478Z,3.17
2019-05-14T07:59:04.295Z,2.93
2019-05-14T08:01:43.460Z,2.43
2019-05-14T08:04:11.276Z,1.93
2019-05-14T08:06:39.436Z,3.10
2019-05-14T08:09:24.946Z,2.10
2019-05-14T08:11:50.881Z,1.97
2019-05-14T08:14:18.502Z,2.00
2019-05-14T08:17:04.449Z,2.10
2019-05-14T08:19:34.009Z,2.27
2019-05-14T08:21:58.826Z,2.40
2019-05-14T08:24:48.734Z,2.57
2019-05-14T08:27:14.125Z,1.90
2019-05-14T08:29:40.256Z,1.90
2019-05-14T08:32:28.468Z,1.97
2019-05-14T08:35:15.753Z,1.60
2019-05-14T08:37:41.612Z,1.70
2019-05-14T08:40:49.089Z,1.77
2019-05-14T08:43:15.034Z,2.10
2019-05-14T08:45:40.884Z,1.80
2019-05-14T08:48:09.036Z,2.10
2019-05-14T08:50:34.872Z,2.07
2019-05-14T08:53:20.695Z,2.00
2019-05-14T08:55:48.812Z,1.80
2019-05-14T08:58:34.741Z,2.10
2019-05-14T09:01:00.836Z,1.57
2019-05-14T09:03:28.728Z,2.10
2019-05-14T09:05:57.734Z,1.40
2019-05-14T09:08:22.240Z,1.87
2019-05-14T09:10:49.724Z,1.50
2019-05-14T09:13:18.215Z,1.93
2019-05-14T09:15:43.590Z,2.57
2019-05-14T09:18:11.726Z,2.80
2019-05-14T09:20:38.171Z,1.77
2019-05-14T09:23:04.221Z,2.50
2019-05-14T09:25:30.095Z,2.13
2019-05-14T09:27:58.415Z,2.13
2019-05-14T09:30:23.995Z,1.93
2019-05-14T09:32:49.916Z,1.57
2019-05-14T09:35:18.568Z,2.20
2019-05-14T09:37:43.491Z,2.10
2019-05-14T09:40:09.460Z,1.43
2019-05-14T09:42:35.363Z,1.70
2019-05-14T09:45:01.442Z,1.80
2019-05-14T09:47:28.236Z,2.17
2019-05-14T09:49:54.302Z,3.40
2019-05-14T09:52:20.196Z,7.00
2019-05-14T09:54:46.079Z,4.57
2019-05-14T09:57:11.929Z,2.07
2019-05-14T09:59:38.426Z,4.53
2019-05-14T10:02:04.720Z,1.90
2019-05-14T10:04:30.676Z,2.13
2019-05-14T10:06:59.115Z,1.70
2019-05-14T10:09:24.645Z,1.80
2019-05-14T10:11:50.486Z,1.50
2019-05-14T10:14:16.356Z,2.00
2019-05-14T10:16:42.229Z,1.50
2019-05-14T10:19:08.080Z,1.60
2019-05-14T10:21:34.009Z,1.43
2019-05-14T10:23:59.866Z,1.97
2019-05-14T10:26:25.704Z,2.03
2019-05-14T10:28:51.549Z,1.73
2019-05-14T10:31:18.363Z,1.50
2019-05-14T10:33:45.341Z,1.73
2019-05-14T10:36:11.206Z,1.70
2019-05-14T10:38:38.838Z,1.33
2019-05-14T10:41:24.660Z,1.70
2019-05-14T10:43:50.489Z,2.63
2019-05-14T10:46:19.129Z,2.10
2019-05-14T10:49:16.506Z,1.70
2019-05-14T10:51:32.314Z,1.70
2019-05-14T10:53:59.398Z,1.60
2019-05-14T10:56:45.794Z,1.57
2019-05-14T10:59:11.724Z,1.93
2019-05-14T11:01:39.071Z,2.43
2019-05-14T11:04:25.197Z,1.47
2019-05-14T11:06:51.073Z,1.90
2019-05-14T11:09:18.077Z,2.33
2019-05-14T11:11:44.758Z,1.70
2019-05-14T11:14:10.702Z,1.30
2019-05-14T11:16:41.627Z,1.83
2019-05-14T11:19:24.293Z,1.80
2019-05-14T11:22:09.997Z,1.87
2019-05-14T11:24:38.323Z,1.43
2019-05-14T11:27:23.568Z,1.77
2019-05-14T11:29:49.414Z,1.80
2019-05-14T11:32:15.343Z,1.30
2019-05-14T11:34:41.304Z,1.33
2019-05-14T11:37:08.546Z,1.80
2019-05-14T11:39:54.898Z,1.97
2019-05-14T11:42:20.754Z,1.40
2019-05-14T11:44:48.645Z,1.70
2019-05-14T11:47:34.211Z,1.90
2019-05-14T11:50:00.158Z,1.50
2019-05-14T11:52:26.025Z,1.43
2019-05-14T11:54:51.863Z,1.67
2019-05-14T11:57:19.291Z,1.53
2019-05-14T12:00:29.536Z,1.70
2019-05-14T12:02:55.029Z,1.97
2019-05-14T12:05:20.864Z,1.50
2019-05-14T12:07:46.719Z,1.60
2019-05-14T12:10:12.574Z,1.63
2019-05-14T12:12:38.505Z,2.30
2019-05-14T12:15:48.325Z,1.60
2019-05-14T12:18:33.644Z,2.10
2019-05-14T12:20:59.688Z,1.60
2019-05-14T12:23:29.618Z,2.00
2019-05-14T12:25:54.843Z,1.70
2019-05-14T12:28:20.724Z,1.70
2019-05-14T12:30:48.944Z,1.43
2019-05-14T12:33:34.203Z,1.40
2019-05-14T12:36:20.051Z,1.40
2019-05-14T12:38:45.927Z,1.43
2019-05-14T12:41:11.819Z,2.93
2019-05-14T12:43:39.689Z,1.47
2019-05-14T12:46:25.437Z,1.63
2019-05-14T12:49:11.825Z,1.43
2019-05-14T12:51:59.192Z,1.57
2019-05-14T12:54:45.471Z,1.90
2019-05-14T12:57:11.423Z,1.80
2019-05-14T12:59:38.182Z,1.40
2019-05-14T13:02:05.132Z,1.33
2019-05-14T13:04:50.872Z,1.60
2019-05-14T13:07:19.065Z,1.40
2019-05-14T13:10:04.490Z,2.00
2019-05-14T13:12:30.329Z,1.70
2019-05-14T13:14:57.882Z,1.90
2019-05-14T13:17:43.917Z,2.77
2019-05-14T13:20:13.618Z,2.50
2019-05-14T13:23:19.311Z,2.47
2019-05-14T13:25:45.393Z,3.23
2019-05-14T13:28:11.433Z,2.87
2019-05-14T13:30:37.410Z,3.00
2019-05-14T13:33:03.349Z,2.90
2019-05-14T13:35:29.369Z,2.43
2019-05-14T13:37:55.422Z,1.87
2019-05-14T13:40:21.580Z,3.30
2019-05-14T13:42:49.177Z,2.00
2019-05-14T13:45:15.234Z,3.10
2019-05-14T13:47:41.179Z,2.53
2019-05-14T13:50:08.496Z,2.07
2019-05-14T13:52:35.348Z,1.97
2019-05-14T13:55:01.318Z,2.00
2019-05-14T13:57:28.692Z,2.70
2019-05-14T13:59:55.172Z,1.50
2019-05-14T14:02:21.060Z,1.70
2019-05-14T14:04:48.280Z,1.80
2019-05-14T14:07:14.876Z,1.63
2019-05-14T14:09:40.856Z,1.40
2019-05-14T14:12:08.247Z,1.40
2019-05-14T14:14:34.499Z,1.20
2019-05-14T14:17:00.371Z,1.60
2019-05-14T14:19:28.185Z,1.60
2019-05-14T14:21:54.189Z,2.13
2019-05-14T14:24:20.121Z,1.67
2019-05-14T14:26:45.943Z,1.87
2019-05-14T14:29:12.001Z,1.80
2019-05-14T14:31:41.420Z,1.77
2019-05-14T14:34:05.795Z,1.47
2019-05-14T14:36:55.084Z,1.67
2019-05-14T14:39:19.509Z,1.70
2019-05-14T14:41:45.377Z,2.40
2019-05-14T14:44:31.386Z,1.80
2019-05-14T14:46:57.845Z,1.90
2019-05-14T14:49:44.978Z,1.70
2019-05-14T14:52:12.178Z,2.03
2019-05-14T14:54:58.930Z,1.70
2019-05-14T14:57:46.583Z,2.03
2019-05-14T15:00:54.227Z,1.73
2019-05-14T15:03:21.141Z,2.00
2019-05-14T15:05:49.803Z,1.97
2019-05-14T15:08:15.797Z,2.00
2019-05-14T15:10:41.757Z,3.27
2019-05-14T15:13:09.258Z,2.30
2019-05-14T15:15:35.521Z,1.77
2019-05-14T15:18:01.481Z,1.97
2019-05-14T15:21:09.715Z,2.43
2019-05-14T15:24:21.139Z,1.83
2019-05-14T15:27:14.645Z,2.57
